VIAR/ATQ METAR and TAF weather

Enter ICAO airport designator
Station Type Date Time Source
VIAR METAR 2021/02/27 09:00 UTC NOAA

VIAR 270900Z 22011KT 4000 HZ FEW100 24/14 Q1006 NOSIG


Station Type Date Time Source
VIAR Decoded METAR 2021/02/27 09:00 UTC NOAA

Amritsar, India (VIAR) 31-38N 074-52E 234M
Feb 27, 2021 - 04:00 AM EST / 2021.02.27 0900 UTC
Wind: from the SW (220 degrees) at 13 MPH (11 KT):0
Visibility: 2 mile(s):0
Sky conditions: mostly clear
Weather: haze
Temperature: 75 F (24 C)
Dew Point: 57 F (14 C)
Relative Humidity: 53%
Pressure (altimeter): 29.71 in. Hg (1006 hPa)
ob: VIAR 270900Z 22011KT 4000 HZ FEW100 24/14 Q1006 NOSIG
cycle: 9

Station Type Date Time Source
VIAR TAF 2021/02/27 06:39 UTC NOAA

TAF VIAR 270500Z 2706/2812 18010G20KT 5000 HZ FEW035 SCT100
BECMG 2713/2715 VRB02KT 2500 HZ BR FEW100
BECMG 2803/2805 15005KT 3500 BR HZ NSC
BECMG 2806/2808 21008KT 5000 HZ FEW100

Example: see airport list